sensor_id;sensor_type;location;lat;lon;timestamp;P1;durP1;ratioP1;P2;durP2;ratioP2
68976;SDS011;56029;52.568;13.588;2023-02-10T00:01:03;22.30;;;9.70;;
68976;SDS011;56029;52.568;13.588;2023-02-10T00:03:33;23.67;;;9.13;;
68976;SDS011;56029;52.568;13.588;2023-02-10T00:05:59;23.85;;;9.95;;
68976;SDS011;56029;52.568;13.588;2023-02-10T00:08:26;23.00;;;9.95;;
68976;SDS011;56029;52.568;13.588;2023-02-10T00:10:51;22.90;;;9.97;;
68976;SDS011;56029;52.568;13.588;2023-02-10T00:13:17;22.60;;;9.65;;
68976;SDS011;56029;52.568;13.588;2023-02-10T00:15:42;23.27;;;10.00;;
68976;SDS011;56029;52.568;13.588;2023-02-10T00:18:08;23.05;;;10.48;;
68976;SDS011;56029;52.568;13.588;2023-02-10T00:20:34;25.50;;;10.23;;
68976;SDS011;56029;52.568;13.588;2023-02-10T00:22:59;23.20;;;10.10;;
68976;SDS011;56029;52.568;13.588;2023-02-10T00:25:25;24.70;;;11.10;;
68976;SDS011;56029;52.568;13.588;2023-02-10T00:27:50;24.00;;;10.27;;
68976;SDS011;56029;52.568;13.588;2023-02-10T00:30:16;28.50;;;11.40;;
68976;SDS011;56029;52.568;13.588;2023-02-10T00:32:41;25.83;;;10.90;;
68976;SDS011;56029;52.568;13.588;2023-02-10T00:35:07;22.87;;;10.30;;
68976;SDS011;56029;52.568;13.588;2023-02-10T00:37:33;25.08;;;11.10;;
68976;SDS011;56029;52.568;13.588;2023-02-10T00:39:58;25.42;;;11.05;;
68976;SDS011;56029;52.568;13.588;2023-02-10T00:42:24;24.73;;;11.37;;
68976;SDS011;56029;52.568;13.588;2023-02-10T00:44:50;22.88;;;10.45;;
68976;SDS011;56029;52.568;13.588;2023-02-10T00:47:16;23.67;;;11.13;;
68976;SDS011;56029;52.568;13.588;2023-02-10T00:49:41;25.47;;;11.30;;
68976;SDS011;56029;52.568;13.588;2023-02-10T00:52:07;26.50;;;11.55;;
68976;SDS011;56029;52.568;13.588;2023-02-10T00:54:33;26.97;;;11.50;;
68976;SDS011;56029;52.568;13.588;2023-02-10T00:56:59;26.73;;;11.02;;
68976;SDS011;56029;52.568;13.588;2023-02-10T00:59:24;21.97;;;9.30;;
68976;SDS011;56029;52.568;13.588;2023-02-10T01:01:50;25.58;;;10.35;;
68976;SDS011;56029;52.568;13.588;2023-02-10T01:04:15;25.93;;;10.90;;
68976;SDS011;56029;52.568;13.588;2023-02-10T01:06:41;27.87;;;12.17;;
68976;SDS011;56029;52.568;13.588;2023-02-10T01:09:06;25.63;;;10.30;;
68976;SDS011;56029;52.568;13.588;2023-02-10T01:11:32;24.23;;;10.87;;
68976;SDS011;56029;52.568;13.588;2023-02-10T01:13:58;28.50;;;10.90;;
68976;SDS011;56029;52.568;13.588;2023-02-10T01:16:23;24.30;;;10.45;;
68976;SDS011;56029;52.568;13.588;2023-02-10T01:18:49;23.37;;;9.87;;
68976;SDS011;56029;52.568;13.588;2023-02-10T01:21:16;23.75;;;10.55;;
68976;SDS011;56029;52.568;13.588;2023-02-10T01:23:44;21.85;;;10.45;;
68976;SDS011;56029;52.568;13.588;2023-02-10T01:26:11;21.33;;;9.73;;
68976;SDS011;56029;52.568;13.588;2023-02-10T01:28:37;21.05;;;9.20;;
68976;SDS011;56029;52.568;13.588;2023-02-10T01:31:10;26.35;;;11.00;;
68976;SDS011;56029;52.568;13.588;2023-02-10T01:33:38;25.83;;;11.23;;
68976;SDS011;56029;52.568;13.588;2023-02-10T01:36:05;25.95;;;10.20;;
68976;SDS011;56029;52.568;13.588;2023-02-10T01:38:32;25.70;;;11.23;;
68976;SDS011;56029;52.568;13.588;2023-02-10T01:40:58;26.70;;;10.48;;
68976;SDS011;56029;52.568;13.588;2023-02-10T01:43:24;24.33;;;10.30;;
68976;SDS011;56029;52.568;13.588;2023-02-10T01:45:49;28.10;;;10.82;;
68976;SDS011;56029;52.568;13.588;2023-02-10T01:48:15;26.03;;;11.33;;
68976;SDS011;56029;52.568;13.588;2023-02-10T01:50:42;24.77;;;11.38;;
68976;SDS011;56029;52.568;13.588;2023-02-10T01:53:13;24.67;;;10.63;;
68976;SDS011;56029;52.568;13.588;2023-02-10T01:55:41;25.23;;;10.93;;
68976;SDS011;56029;52.568;13.588;2023-02-10T01:58:11;26.02;;;11.10;;
68976;SDS011;56029;52.568;13.588;2023-02-10T02:00:38;25.50;;;11.32;;
68976;SDS011;56029;52.568;13.588;2023-02-10T02:03:04;24.73;;;11.40;;
68976;SDS011;56029;52.568;13.588;2023-02-10T02:08:00;25.25;;;11.38;;
68976;SDS011;56029;52.568;13.588;2023-02-10T02:10:33;26.15;;;10.75;;
68976;SDS011;56029;52.568;13.588;2023-02-10T02:13:35;23.50;;;10.50;;
68976;SDS011;56029;52.568;13.588;2023-02-10T02:16:15;25.27;;;10.90;;
68976;SDS011;56029;52.568;13.588;2023-02-10T02:24:46;27.80;;;11.93;;
68976;SDS011;56029;52.568;13.588;2023-02-10T02:27:36;28.50;;;11.40;;
68976;SDS011;56029;52.568;13.588;2023-02-10T02:30:21;25.08;;;11.10;;
68976;SDS011;56029;52.568;13.588;2023-02-10T02:33:10;30.55;;;12.52;;
68976;SDS011;56029;52.568;13.588;2023-02-10T02:35:43;24.75;;;11.20;;
68976;SDS011;56029;52.568;13.588;2023-02-10T02:38:15;32.22;;;13.20;;
68976;SDS011;56029;52.568;13.588;2023-02-10T02:40:40;29.80;;;12.70;;
68976;SDS011;56029;52.568;13.588;2023-02-10T02:43:06;31.13;;;12.63;;
68976;SDS011;56029;52.568;13.588;2023-02-10T02:45:50;30.50;;;12.00;;
68976;SDS011;56029;52.568;13.588;2023-02-10T02:48:25;30.70;;;12.93;;
68976;SDS011;56029;52.568;13.588;2023-02-10T02:53:59;28.70;;;12.37;;
68976;SDS011;56029;52.568;13.588;2023-02-10T02:56:45;30.60;;;13.07;;
68976;SDS011;56029;52.568;13.588;2023-02-10T02:59:18;30.67;;;13.65;;
68976;SDS011;56029;52.568;13.588;2023-02-10T03:01:51;20.02;;;8.88;;
68976;SDS011;56029;52.568;13.588;2023-02-10T03:04:21;31.20;;;13.15;;
68976;SDS011;56029;52.568;13.588;2023-02-10T03:06:46;28.97;;;13.53;;
68976;SDS011;56029;52.568;13.588;2023-02-10T03:09:12;29.85;;;13.30;;
68976;SDS011;56029;52.568;13.588;2023-02-10T03:11:38;30.77;;;14.18;;
68976;SDS011;56029;52.568;13.588;2023-02-10T03:14:03;33.50;;;13.53;;
68976;SDS011;56029;52.568;13.588;2023-02-10T03:16:29;29.85;;;12.82;;
68976;SDS011;56029;52.568;13.588;2023-02-10T03:18:54;30.67;;;13.60;;
68976;SDS011;56029;52.568;13.588;2023-02-10T03:21:20;30.13;;;13.87;;
68976;SDS011;56029;52.568;13.588;2023-02-10T03:23:45;34.50;;;14.73;;
68976;SDS011;56029;52.568;13.588;2023-02-10T03:26:11;30.93;;;14.17;;
68976;SDS011;56029;52.568;13.588;2023-02-10T03:28:37;34.00;;;14.13;;
68976;SDS011;56029;52.568;13.588;2023-02-10T03:31:03;33.00;;;14.63;;
68976;SDS011;56029;52.568;13.588;2023-02-10T03:33:31;33.05;;;14.38;;
68976;SDS011;56029;52.568;13.588;2023-02-10T03:35:57;32.72;;;14.23;;
68976;SDS011;56029;52.568;13.588;2023-02-10T03:38:23;30.10;;;13.75;;
68976;SDS011;56029;52.568;13.588;2023-02-10T03:40:50;34.83;;;15.45;;
68976;SDS011;56029;52.568;13.588;2023-02-10T03:43:17;34.85;;;14.02;;
68976;SDS011;56029;52.568;13.588;2023-02-10T03:45:42;36.28;;;15.45;;
68976;SDS011;56029;52.568;13.588;2023-02-10T03:48:08;35.50;;;15.03;;
68976;SDS011;56029;52.568;13.588;2023-02-10T03:50:34;47.63;;;16.63;;
68976;SDS011;56029;52.568;13.588;2023-02-10T03:53:00;35.83;;;14.88;;
68976;SDS011;56029;52.568;13.588;2023-02-10T03:55:26;35.08;;;14.82;;
68976;SDS011;56029;52.568;13.588;2023-02-10T03:57:52;35.97;;;16.25;;
68976;SDS011;56029;52.568;13.588;2023-02-10T04:00:18;34.00;;;16.47;;
68976;SDS011;56029;52.568;13.588;2023-02-10T04:02:44;33.72;;;15.85;;
68976;SDS011;56029;52.568;13.588;2023-02-10T04:05:09;34.37;;;15.33;;
68976;SDS011;56029;52.568;13.588;2023-02-10T04:07:35;35.78;;;15.70;;
68976;SDS011;56029;52.568;13.588;2023-02-10T04:10:01;34.17;;;15.80;;
68976;SDS011;56029;52.568;13.588;2023-02-10T04:12:28;35.97;;;16.25;;
68976;SDS011;56029;52.568;13.588;2023-02-10T04:14:54;37.23;;;15.93;;
68976;SDS011;56029;52.568;13.588;2023-02-10T04:17:19;36.90;;;16.00;;
68976;SDS011;56029;52.568;13.588;2023-02-10T04:19:45;37.35;;;16.23;;
68976;SDS011;56029;52.568;13.588;2023-02-10T04:22:11;40.07;;;17.87;;
68976;SDS011;56029;52.568;13.588;2023-02-10T04:24:36;34.77;;;15.10;;
68976;SDS011;56029;52.568;13.588;2023-02-10T04:27:02;37.20;;;16.15;;
68976;SDS011;56029;52.568;13.588;2023-02-10T04:29:27;38.97;;;16.73;;
68976;SDS011;56029;52.568;13.588;2023-02-10T04:31:53;37.77;;;16.20;;
68976;SDS011;56029;52.568;13.588;2023-02-10T04:34:18;37.38;;;15.93;;
68976;SDS011;56029;52.568;13.588;2023-02-10T04:36:44;34.87;;;15.43;;
68976;SDS011;56029;52.568;13.588;2023-02-10T04:39:09;31.60;;;13.60;;
68976;SDS011;56029;52.568;13.588;2023-02-10T04:41:35;39.15;;;16.02;;
68976;SDS011;56029;52.568;13.588;2023-02-10T04:44:00;33.90;;;15.43;;
68976;SDS011;56029;52.568;13.588;2023-02-10T04:46:26;36.27;;;16.17;;
68976;SDS011;56029;52.568;13.588;2023-02-10T04:48:51;36.15;;;15.48;;
68976;SDS011;56029;52.568;13.588;2023-02-10T04:51:17;34.30;;;15.83;;
68976;SDS011;56029;52.568;13.588;2023-02-10T04:53:42;36.97;;;16.40;;
68976;SDS011;56029;52.568;13.588;2023-02-10T04:56:12;41.33;;;16.92;;
68976;SDS011;56029;52.568;13.588;2023-02-10T04:58:38;37.13;;;15.43;;
68976;SDS011;56029;52.568;13.588;2023-02-10T05:01:04;36.37;;;15.73;;
68976;SDS011;56029;52.568;13.588;2023-02-10T05:03:30;38.65;;;15.75;;
68976;SDS011;56029;52.568;13.588;2023-02-10T05:05:55;36.70;;;15.70;;
68976;SDS011;56029;52.568;13.588;2023-02-10T05:08:21;36.72;;;16.92;;
68976;SDS011;56029;52.568;13.588;2023-02-10T05:10:49;35.05;;;16.20;;
68976;SDS011;56029;52.568;13.588;2023-02-10T05:13:16;41.10;;;16.67;;
68976;SDS011;56029;52.568;13.588;2023-02-10T05:15:42;39.25;;;16.73;;
68976;SDS011;56029;52.568;13.588;2023-02-10T05:18:07;40.40;;;16.83;;
68976;SDS011;56029;52.568;13.588;2023-02-10T05:20:33;39.03;;;15.90;;
68976;SDS011;56029;52.568;13.588;2023-02-10T05:22:58;38.70;;;16.50;;
68976;SDS011;56029;52.568;13.588;2023-02-10T05:25:24;40.37;;;16.50;;
68976;SDS011;56029;52.568;13.588;2023-02-10T05:27:49;37.67;;;15.97;;
68976;SDS011;56029;52.568;13.588;2023-02-10T05:30:15;42.20;;;16.97;;
68976;SDS011;56029;52.568;13.588;2023-02-10T05:32:41;41.03;;;16.50;;
68976;SDS011;56029;52.568;13.588;2023-02-10T05:35:08;37.85;;;15.00;;
68976;SDS011;56029;52.568;13.588;2023-02-10T05:37:34;42.83;;;15.95;;
68976;SDS011;56029;52.568;13.588;2023-02-10T05:39:59;39.40;;;16.30;;
68976;SDS011;56029;52.568;13.588;2023-02-10T05:42:25;40.43;;;16.97;;
68976;SDS011;56029;52.568;13.588;2023-02-10T05:44:50;41.13;;;16.30;;
68976;SDS011;56029;52.568;13.588;2023-02-10T05:47:16;40.77;;;17.10;;
68976;SDS011;56029;52.568;13.588;2023-02-10T05:49:41;44.50;;;17.93;;
68976;SDS011;56029;52.568;13.588;2023-02-10T05:52:07;42.07;;;17.73;;
68976;SDS011;56029;52.568;13.588;2023-02-10T05:54:32;44.93;;;17.37;;
68976;SDS011;56029;52.568;13.588;2023-02-10T05:56:58;43.45;;;16.92;;
68976;SDS011;56029;52.568;13.588;2023-02-10T05:59:23;44.53;;;17.87;;
68976;SDS011;56029;52.568;13.588;2023-02-10T06:01:49;39.20;;;16.63;;
68976;SDS011;56029;52.568;13.588;2023-02-10T06:04:15;42.30;;;17.13;;
68976;SDS011;56029;52.568;13.588;2023-02-10T06:06:41;46.60;;;18.60;;
68976;SDS011;56029;52.568;13.588;2023-02-10T06:09:06;44.53;;;18.15;;
68976;SDS011;56029;52.568;13.588;2023-02-10T06:11:32;43.57;;;18.00;;
68976;SDS011;56029;52.568;13.588;2023-02-10T06:13:57;42.80;;;18.10;;
68976;SDS011;56029;52.568;13.588;2023-02-10T06:16:23;45.73;;;17.13;;
68976;SDS011;56029;52.568;13.588;2023-02-10T06:18:49;42.30;;;17.83;;
68976;SDS011;56029;52.568;13.588;2023-02-10T06:21:15;40.67;;;17.10;;
68976;SDS011;56029;52.568;13.588;2023-02-10T06:23:41;47.17;;;18.65;;
68976;SDS011;56029;52.568;13.588;2023-02-10T06:26:06;47.88;;;18.88;;
68976;SDS011;56029;52.568;13.588;2023-02-10T06:28:32;45.13;;;18.53;;
68976;SDS011;56029;52.568;13.588;2023-02-10T06:30:58;46.70;;;17.92;;
68976;SDS011;56029;52.568;13.588;2023-02-10T06:33:23;43.90;;;18.33;;
68976;SDS011;56029;52.568;13.588;2023-02-10T06:35:49;39.70;;;17.00;;
68976;SDS011;56029;52.568;13.588;2023-02-10T06:38:14;49.08;;;18.05;;
68976;SDS011;56029;52.568;13.588;2023-02-10T06:40:40;45.90;;;18.65;;
68976;SDS011;56029;52.568;13.588;2023-02-10T06:43:06;41.83;;;17.58;;
68976;SDS011;56029;52.568;13.588;2023-02-10T06:45:31;47.13;;;19.13;;
68976;SDS011;56029;52.568;13.588;2023-02-10T06:47:58;52.60;;;19.40;;
68976;SDS011;56029;52.568;13.588;2023-02-10T06:50:24;46.45;;;17.58;;
68976;SDS011;56029;52.568;13.588;2023-02-10T06:52:49;43.47;;;18.25;;
68976;SDS011;56029;52.568;13.588;2023-02-10T06:55:15;48.17;;;18.20;;
68976;SDS011;56029;52.568;13.588;2023-02-10T06:57:41;43.88;;;17.42;;
68976;SDS011;56029;52.568;13.588;2023-02-10T07:00:09;45.43;;;18.13;;
68976;SDS011;56029;52.568;13.588;2023-02-10T07:02:36;41.90;;;17.05;;
68976;SDS011;56029;52.568;13.588;2023-02-10T07:05:02;48.88;;;18.42;;
68976;SDS011;56029;52.568;13.588;2023-02-10T07:07:30;45.45;;;18.52;;
68976;SDS011;56029;52.568;13.588;2023-02-10T07:09:57;45.17;;;18.38;;
68976;SDS011;56029;52.568;13.588;2023-02-10T07:12:22;46.70;;;19.00;;
68976;SDS011;56029;52.568;13.588;2023-02-10T07:14:50;41.13;;;17.73;;
68976;SDS011;56029;52.568;13.588;2023-02-10T07:17:16;44.33;;;17.17;;
68976;SDS011;56029;52.568;13.588;2023-02-10T07:19:43;44.75;;;17.88;;
68976;SDS011;56029;52.568;13.588;2023-02-10T07:22:08;43.17;;;17.60;;
68976;SDS011;56029;52.568;13.588;2023-02-10T07:24:34;41.78;;;17.55;;
68976;SDS011;56029;52.568;13.588;2023-02-10T07:27:00;46.40;;;19.23;;
68976;SDS011;56029;52.568;13.588;2023-02-10T07:29:27;40.83;;;17.97;;
68976;SDS011;56029;52.568;13.588;2023-02-10T07:31:53;44.90;;;17.45;;
68976;SDS011;56029;52.568;13.588;2023-02-10T07:34:19;41.87;;;17.27;;
68976;SDS011;56029;52.568;13.588;2023-02-10T07:36:46;43.65;;;18.63;;
68976;SDS011;56029;52.568;13.588;2023-02-10T07:39:22;36.90;;;16.13;;
68976;SDS011;56029;52.568;13.588;2023-02-10T07:41:48;42.45;;;17.15;;
68976;SDS011;56029;52.568;13.588;2023-02-10T07:44:15;42.20;;;17.35;;
68976;SDS011;56029;52.568;13.588;2023-02-10T07:46:40;43.87;;;16.57;;
68976;SDS011;56029;52.568;13.588;2023-02-10T07:49:07;40.55;;;16.73;;
68976;SDS011;56029;52.568;13.588;2023-02-10T07:51:32;40.17;;;15.90;;
68976;SDS011;56029;52.568;13.588;2023-02-10T07:53:58;41.75;;;17.40;;
68976;SDS011;56029;52.568;13.588;2023-02-10T07:56:24;44.93;;;17.67;;
68976;SDS011;56029;52.568;13.588;2023-02-10T07:58:50;40.53;;;16.40;;
68976;SDS011;56029;52.568;13.588;2023-02-10T08:01:16;41.97;;;16.13;;
68976;SDS011;56029;52.568;13.588;2023-02-10T08:03:41;37.40;;;15.37;;
68976;SDS011;56029;52.568;13.588;2023-02-10T08:06:07;45.40;;;17.30;;
68976;SDS011;56029;52.568;13.588;2023-02-10T08:08:33;40.05;;;15.98;;
68976;SDS011;56029;52.568;13.588;2023-02-10T08:10:59;42.53;;;17.02;;
68976;SDS011;56029;52.568;13.588;2023-02-10T08:13:24;41.67;;;16.60;;
68976;SDS011;56029;52.568;13.588;2023-02-10T08:15:52;41.92;;;16.50;;
68976;SDS011;56029;52.568;13.588;2023-02-10T08:18:18;44.03;;;16.33;;
68976;SDS011;56029;52.568;13.588;2023-02-10T08:20:43;42.00;;;17.10;;
68976;SDS011;56029;52.568;13.588;2023-02-10T08:23:13;47.08;;;17.65;;
68976;SDS011;56029;52.568;13.588;2023-02-10T08:25:39;38.37;;;15.10;;
68976;SDS011;56029;52.568;13.588;2023-02-10T08:28:05;40.05;;;16.88;;
68976;SDS011;56029;52.568;13.588;2023-02-10T08:30:31;42.70;;;17.17;;
68976;SDS011;56029;52.568;13.588;2023-02-10T08:32:56;39.97;;;16.00;;
68976;SDS011;56029;52.568;13.588;2023-02-10T08:35:23;42.33;;;17.38;;
68976;SDS011;56029;52.568;13.588;2023-02-10T08:37:49;39.30;;;15.30;;
68976;SDS011;56029;52.568;13.588;2023-02-10T08:40:15;44.00;;;17.23;;
68976;SDS011;56029;52.568;13.588;2023-02-10T08:42:42;41.57;;;17.67;;
68976;SDS011;56029;52.568;13.588;2023-02-10T08:45:07;41.35;;;18.17;;
68976;SDS011;56029;52.568;13.588;2023-02-10T08:47:33;42.25;;;17.10;;
68976;SDS011;56029;52.568;13.588;2023-02-10T08:49:59;43.07;;;16.53;;
68976;SDS011;56029;52.568;13.588;2023-02-10T08:52:25;41.78;;;16.75;;
68976;SDS011;56029;52.568;13.588;2023-02-10T08:54:50;41.60;;;16.83;;
68976;SDS011;56029;52.568;13.588;2023-02-10T08:57:16;44.38;;;17.48;;
68976;SDS011;56029;52.568;13.588;2023-02-10T08:59:42;35.77;;;14.33;;
68976;SDS011;56029;52.568;13.588;2023-02-10T09:02:09;44.10;;;16.30;;
68976;SDS011;56029;52.568;13.588;2023-02-10T09:04:36;33.83;;;13.57;;
68976;SDS011;56029;52.568;13.588;2023-02-10T09:07:02;45.63;;;16.87;;
68976;SDS011;56029;52.568;13.588;2023-02-10T09:09:27;44.70;;;17.53;;
68976;SDS011;56029;52.568;13.588;2023-02-10T09:11:53;38.05;;;14.65;;
68976;SDS011;56029;52.568;13.588;2023-02-10T09:14:20;38.70;;;15.85;;
68976;SDS011;56029;52.568;13.588;2023-02-10T09:16:45;36.87;;;16.27;;
68976;SDS011;56029;52.568;13.588;2023-02-10T09:19:11;40.10;;;16.67;;
68976;SDS011;56029;52.568;13.588;2023-02-10T09:21:37;38.83;;;16.43;;
68976;SDS011;56029;52.568;13.588;2023-02-10T09:24:02;39.57;;;15.93;;
68976;SDS011;56029;52.568;13.588;2023-02-10T09:26:28;41.30;;;15.40;;
68976;SDS011;56029;52.568;13.588;2023-02-10T09:28:53;41.23;;;15.80;;
68976;SDS011;56029;52.568;13.588;2023-02-10T09:31:20;43.88;;;16.67;;
68976;SDS011;56029;52.568;13.588;2023-02-10T09:33:45;37.03;;;15.00;;
68976;SDS011;56029;52.568;13.588;2023-02-10T09:36:15;39.43;;;16.13;;
68976;SDS011;56029;52.568;13.588;2023-02-10T09:38:43;44.40;;;16.35;;
68976;SDS011;56029;52.568;13.588;2023-02-10T09:43:47;40.38;;;15.43;;
68976;SDS011;56029;52.568;13.588;2023-02-10T09:47:08;36.22;;;16.20;;
68976;SDS011;56029;52.568;13.588;2023-02-10T09:55:00;40.10;;;15.23;;
68976;SDS011;56029;52.568;13.588;2023-02-10T09:59:54;32.63;;;13.43;;
68976;SDS011;56029;52.568;13.588;2023-02-10T10:02:28;32.30;;;12.70;;
68976;SDS011;56029;52.568;13.588;2023-02-10T10:04:58;49.10;;;16.60;;
68976;SDS011;56029;52.568;13.588;2023-02-10T10:07:35;39.23;;;16.20;;
68976;SDS011;56029;52.568;13.588;2023-02-10T10:10:08;39.28;;;15.23;;
68976;SDS011;56029;52.568;13.588;2023-02-10T10:12:39;42.08;;;16.90;;
68976;SDS011;56029;52.568;13.588;2023-02-10T10:15:09;42.80;;;16.63;;
68976;SDS011;56029;52.568;13.588;2023-02-10T10:23:11;34.95;;;14.98;;
68976;SDS011;56029;52.568;13.588;2023-02-10T10:25:53;32.65;;;12.93;;
68976;SDS011;56029;52.568;13.588;2023-02-10T10:28:31;41.60;;;15.40;;
68976;SDS011;56029;52.568;13.588;2023-02-10T10:33:49;39.45;;;15.85;;
68976;SDS011;56029;52.568;13.588;2023-02-10T10:36:33;41.05;;;15.70;;
68976;SDS011;56029;52.568;13.588;2023-02-10T10:39:26;41.85;;;16.58;;
68976;SDS011;56029;52.568;13.588;2023-02-10T10:42:00;37.80;;;15.70;;
68976;SDS011;56029;52.568;13.588;2023-02-10T10:44:30;36.67;;;13.75;;
68976;SDS011;56029;52.568;13.588;2023-02-10T10:47:03;31.42;;;12.32;;
68976;SDS011;56029;52.568;13.588;2023-02-10T10:49:36;26.58;;;10.73;;
68976;SDS011;56029;52.568;13.588;2023-02-10T10:52:02;37.17;;;14.27;;
68976;SDS011;56029;52.568;13.588;2023-02-10T10:54:41;38.77;;;14.27;;
68976;SDS011;56029;52.568;13.588;2023-02-10T10:57:09;37.95;;;13.60;;
68976;SDS011;56029;52.568;13.588;2023-02-10T10:59:40;36.65;;;14.02;;
68976;SDS011;56029;52.568;13.588;2023-02-10T11:02:14;36.53;;;14.73;;
68976;SDS011;56029;52.568;13.588;2023-02-10T11:04:42;37.63;;;14.65;;
68976;SDS011;56029;52.568;13.588;2023-02-10T11:07:19;37.28;;;14.75;;
68976;SDS011;56029;52.568;13.588;2023-02-10T11:09:51;35.78;;;14.82;;
68976;SDS011;56029;52.568;13.588;2023-02-10T11:12:24;36.70;;;14.50;;
68976;SDS011;56029;52.568;13.588;2023-02-10T11:14:55;35.90;;;14.50;;
68976;SDS011;56029;52.568;13.588;2023-02-10T11:22:38;33.70;;;14.13;;
68976;SDS011;56029;52.568;13.588;2023-02-10T11:27:52;38.03;;;15.23;;
68976;SDS011;56029;52.568;13.588;2023-02-10T11:30:37;38.70;;;14.45;;
68976;SDS011;56029;52.568;13.588;2023-02-10T11:33:04;32.25;;;13.82;;
68976;SDS011;56029;52.568;13.588;2023-02-10T11:35:31;40.33;;;14.43;;
68976;SDS011;56029;52.568;13.588;2023-02-10T11:38:00;35.17;;;13.32;;
68976;SDS011;56029;52.568;13.588;2023-02-10T11:40:31;31.60;;;13.33;;
68976;SDS011;56029;52.568;13.588;2023-02-10T11:43:15;35.50;;;13.35;;
68976;SDS011;56029;52.568;13.588;2023-02-10T11:45:50;35.70;;;13.35;;
68976;SDS011;56029;52.568;13.588;2023-02-10T11:48:21;35.97;;;13.38;;
68976;SDS011;56029;52.568;13.588;2023-02-10T11:50:48;32.70;;;13.90;;
68976;SDS011;56029;52.568;13.588;2023-02-10T11:53:30;30.80;;;12.40;;
68976;SDS011;56029;52.568;13.588;2023-02-10T11:56:01;30.90;;;12.80;;
68976;SDS011;56029;52.568;13.588;2023-02-10T12:01:31;29.73;;;12.18;;
68976;SDS011;56029;52.568;13.588;2023-02-10T12:06:45;33.30;;;12.70;;
68976;SDS011;56029;52.568;13.588;2023-02-10T12:09:27;29.85;;;11.75;;
68976;SDS011;56029;52.568;13.588;2023-02-10T12:11:56;31.85;;;13.32;;
68976;SDS011;56029;52.568;13.588;2023-02-10T12:22:55;32.25;;;12.93;;
68976;SDS011;56029;52.568;13.588;2023-02-10T12:25:31;35.10;;;13.77;;
68976;SDS011;56029;52.568;13.588;2023-02-10T12:28:51;35.85;;;13.77;;
68976;SDS011;56029;52.568;13.588;2023-02-10T12:34:14;33.83;;;12.67;;
68976;SDS011;56029;52.568;13.588;2023-02-10T12:40:13;29.25;;;12.45;;
68976;SDS011;56029;52.568;13.588;2023-02-10T12:43:03;32.63;;;13.75;;
68976;SDS011;56029;52.568;13.588;2023-02-10T12:51:35;34.17;;;12.63;;
68976;SDS011;56029;52.568;13.588;2023-02-10T12:54:12;36.15;;;13.43;;
68976;SDS011;56029;52.568;13.588;2023-02-10T12:56:45;35.10;;;13.73;;
68976;SDS011;56029;52.568;13.588;2023-02-10T12:59:18;34.00;;;12.80;;
68976;SDS011;56029;52.568;13.588;2023-02-10T13:01:53;30.67;;;12.47;;
68976;SDS011;56029;52.568;13.588;2023-02-10T13:04:37;30.73;;;13.27;;
68976;SDS011;56029;52.568;13.588;2023-02-10T13:09:50;31.67;;;12.90;;
68976;SDS011;56029;52.568;13.588;2023-02-10T13:12:27;29.58;;;12.30;;
68976;SDS011;56029;52.568;13.588;2023-02-10T13:15:04;33.33;;;11.77;;
68976;SDS011;56029;52.568;13.588;2023-02-10T13:17:45;30.80;;;12.57;;
68976;SDS011;56029;52.568;13.588;2023-02-10T13:20:22;27.92;;;12.10;;
68976;SDS011;56029;52.568;13.588;2023-02-10T13:28:58;30.90;;;11.67;;
68976;SDS011;56029;52.568;13.588;2023-02-10T13:34:27;28.40;;;11.65;;
68976;SDS011;56029;52.568;13.588;2023-02-10T13:37:05;31.60;;;11.40;;
68976;SDS011;56029;52.568;13.588;2023-02-10T13:39:36;28.33;;;11.32;;
68976;SDS011;56029;52.568;13.588;2023-02-10T13:44:33;29.15;;;12.15;;
68976;SDS011;56029;52.568;13.588;2023-02-10T13:49:53;25.63;;;11.05;;
68976;SDS011;56029;52.568;13.588;2023-02-10T13:52:24;25.48;;;10.95;;
68976;SDS011;56029;52.568;13.588;2023-02-10T13:54:59;30.50;;;12.17;;
68976;SDS011;56029;52.568;13.588;2023-02-10T13:57:29;30.38;;;12.10;;
68976;SDS011;56029;52.568;13.588;2023-02-10T14:00:05;27.17;;;10.98;;
68976;SDS011;56029;52.568;13.588;2023-02-10T14:02:37;28.55;;;11.50;;
68976;SDS011;56029;52.568;13.588;2023-02-10T14:05:19;31.10;;;12.48;;
68976;SDS011;56029;52.568;13.588;2023-02-10T14:07:48;26.77;;;11.97;;
68976;SDS011;56029;52.568;13.588;2023-02-10T14:13:03;27.15;;;11.73;;
68976;SDS011;56029;52.568;13.588;2023-02-10T14:15:59;27.30;;;10.18;;
68976;SDS011;56029;52.568;13.588;2023-02-10T14:18:31;21.30;;;9.00;;
68976;SDS011;56029;52.568;13.588;2023-02-10T14:21:00;27.63;;;11.03;;
68976;SDS011;56029;52.568;13.588;2023-02-10T14:23:29;28.23;;;11.10;;
68976;SDS011;56029;52.568;13.588;2023-02-10T14:25:58;37.28;;;12.55;;
68976;SDS011;56029;52.568;13.588;2023-02-10T14:28:33;28.95;;;11.38;;
68976;SDS011;56029;52.568;13.588;2023-02-10T14:31:04;30.00;;;11.60;;
68976;SDS011;56029;52.568;13.588;2023-02-10T14:33:36;30.17;;;11.43;;
68976;SDS011;56029;52.568;13.588;2023-02-10T14:36:03;32.03;;;11.75;;
68976;SDS011;56029;52.568;13.588;2023-02-10T14:38:40;31.52;;;11.90;;
68976;SDS011;56029;52.568;13.588;2023-02-10T14:41:12;25.80;;;11.13;;
68976;SDS011;56029;52.568;13.588;2023-02-10T14:43:38;30.08;;;11.82;;
68976;SDS011;56029;52.568;13.588;2023-02-10T14:46:05;29.73;;;11.63;;
68976;SDS011;56029;52.568;13.588;2023-02-10T14:48:31;27.00;;;11.25;;
68976;SDS011;56029;52.568;13.588;2023-02-10T14:51:02;26.35;;;11.73;;
68976;SDS011;56029;52.568;13.588;2023-02-10T14:53:32;26.58;;;11.40;;
68976;SDS011;56029;52.568;13.588;2023-02-10T14:55:59;26.87;;;11.40;;
68976;SDS011;56029;52.568;13.588;2023-02-10T14:58:26;27.40;;;11.95;;
68976;SDS011;56029;52.568;13.588;2023-02-10T15:00:54;29.25;;;11.60;;
68976;SDS011;56029;52.568;13.588;2023-02-10T15:03:23;32.08;;;13.35;;
68976;SDS011;56029;52.568;13.588;2023-02-10T15:05:52;28.95;;;12.25;;
68976;SDS011;56029;52.568;13.588;2023-02-10T15:08:23;27.70;;;11.93;;
68976;SDS011;56029;52.568;13.588;2023-02-10T15:10:54;28.95;;;12.77;;
68976;SDS011;56029;52.568;13.588;2023-02-10T15:13:22;30.88;;;12.80;;
68976;SDS011;56029;52.568;13.588;2023-02-10T15:16:00;32.50;;;13.82;;
68976;SDS011;56029;52.568;13.588;2023-02-10T15:18:31;32.40;;;14.00;;
68976;SDS011;56029;52.568;13.588;2023-02-10T15:21:04;33.67;;;13.73;;
68976;SDS011;56029;52.568;13.588;2023-02-10T15:23:48;32.10;;;13.15;;
68976;SDS011;56029;52.568;13.588;2023-02-10T15:26:18;37.30;;;14.63;;
68976;SDS011;56029;52.568;13.588;2023-02-10T15:29:04;29.42;;;12.52;;
68976;SDS011;56029;52.568;13.588;2023-02-10T15:31:41;30.48;;;12.82;;
68976;SDS011;56029;52.568;13.588;2023-02-10T15:34:27;27.57;;;12.17;;
68976;SDS011;56029;52.568;13.588;2023-02-10T15:37:02;27.83;;;12.35;;
68976;SDS011;56029;52.568;13.588;2023-02-10T15:39:31;28.65;;;12.45;;
68976;SDS011;56029;52.568;13.588;2023-02-10T15:42:04;31.15;;;13.38;;
68976;SDS011;56029;52.568;13.588;2023-02-10T15:44:36;29.75;;;13.85;;